Time;durP1;ratioP1;P1;durP2;ratioP2;P2;SDS_P1;SDS_P2;PMS_P1;PMS_P2;Temp;Humidity;BMP_temperature;BMP_pressure;BME280_temperature;BME280_humidity;BME280_pressure;Samples;Min_cycle;Max_cycle;Signal;HPM_P1;HPM_P2
2022/06/08 00:01:57;;;;;;;17.92;7.20;;;;;;;13.34;54.24;99208.50;5107562;27;20039;-66
2022/06/08 00:04:23;;;;;;;27.52;8.98;;;;;;;13.36;54.59;99206.56;5093456;27;20042;-64
2022/06/08 00:06:52;;;;;;;14.60;6.75;;;;;;;13.40;55.04;99202.63;5092541;27;20023;-65
2022/06/08 00:09:18;;;;;;;18.75;7.88;;;;;;;13.40;55.27;99204.47;5076469;27;20043;-65
2022/06/08 00:11:43;;;;;;;16.10;7.35;;;;;;;13.39;55.09;99200.09;5095506;27;20405;-64
2022/06/08 00:14:08;;;;;;;14.35;7.53;;;;;;;13.38;55.51;99204.59;5096996;27;20054;-65
2022/06/08 00:16:32;;;;;;;14.13;7.10;;;;;;;13.38;54.03;99201.06;5098601;27;20050;-67
2022/06/08 00:18:57;;;;;;;19.25;7.07;;;;;;;13.40;53.87;99201.78;5099089;27;20043;-71
2022/06/08 00:21:22;;;;;;;14.25;6.65;;;;;;;13.41;54.02;99203.47;5079076;27;20051;-69
2022/06/08 00:23:47;;;;;;;18.45;7.15;;;;;;;13.42;53.37;99200.66;5095677;27;20046;-70
2022/06/08 00:26:12;;;;;;;18.63;7.57;;;;;;;13.45;55.26;99205.72;5096954;27;20126;-75
2022/06/08 00:28:37;;;;;;;19.92;7.40;;;;;;;13.47;54.50;99202.06;5078738;27;20058;-69
2022/06/08 00:31:02;;;;;;;17.92;6.53;;;;;;;13.47;54.21;99210.94;5097048;27;20074;-70
2022/06/08 00:33:27;;;;;;;20.55;6.75;;;;;;;13.49;53.92;99200.09;5061941;27;20035;-72
2022/06/08 00:35:52;;;;;;;15.98;6.75;;;;;;;13.50;53.50;99202.63;5096079;27;20038;-72
2022/06/08 00:38:17;;;;;;;13.57;5.90;;;;;;;13.50;52.85;99197.28;5115209;27;20034;-70
2022/06/08 00:40:57;;;;;;;11.80;6.47;;;;;;;13.60;52.61;99198.13;5116277;27;20057;-69
2022/06/08 00:43:24;;;;;;;17.90;7.30;;;;;;;13.58;51.42;99199.25;5080433;27;20125;-70
2022/06/08 00:45:48;;;;;;;16.80;5.93;;;;;;;13.62;51.39;99200.69;5099265;27;20043;-69
2022/06/08 00:48:14;;;;;;;15.88;6.47;;;;;;;13.64;50.99;99190.69;5117834;27;20043;-69
2022/06/08 00:50:44;;;;;;;14.68;5.55;;;;;;;13.71;51.49;99200.69;5082340;27;20042;-70
2022/06/08 00:53:11;;;;;;;9.52;5.80;;;;;;;13.73;50.47;99189.84;5098905;27;20053;-71
2022/06/08 00:55:39;;;;;;;13.90;5.93;;;;;;;13.76;51.00;99205.63;5117782;27;20047;-69
2022/06/08 00:58:10;;;;;;;9.43;5.80;;;;;;;13.77;51.25;99194.75;5119444;27;20039;-71
2022/06/08 01:00:38;;;;;;;18.05;6.80;;;;;;;13.82;51.01;99191.66;5080916;27;20035;-67
2022/06/08 01:03:05;;;;;;;17.40;6.43;;;;;;;13.82;51.69;99203.22;5078700;27;20039;-67
2022/06/08 01:05:44;;;;;;;13.23;6.03;;;;;;;13.87;52.32;99197.47;5075794;27;20035;-67
2022/06/08 01:08:22;;;;;;;13.90;6.40;;;;;;;13.92;52.16;99197.00;5077468;28;20073;-67
2022/06/08 01:10:53;;;;;;;19.25;7.72;;;;;;;13.90;51.54;99197.16;5079466;28;20047;-66
2022/06/08 01:13:20;;;;;;;23.95;9.88;;;;;;;13.88;52.05;99191.13;5072922;28;20067;-72
2022/06/08 01:15:47;;;;;;;16.55;8.25;;;;;;;13.88;52.40;99192.94;5061755;28;20039;-69
2022/06/08 01:18:16;;;;;;;30.58;8.40;;;;;;;13.87;52.40;99202.81;5058795;28;20054;-68
2022/06/08 01:20:51;;;;;;;17.52;6.97;;;;;;;13.92;53.27;99203.22;5077357;28;20051;-65
2022/06/08 01:23:19;;;;;;;17.27;7.60;;;;;;;13.89;53.12;99208.00;5074354;28;20062;-64
2022/06/08 01:26:11;;;;;;;18.10;8.18;;;;;;;13.98;53.18;99202.66;5068673;28;20045;-64
2022/06/08 01:29:02;;;;;;;14.80;6.55;;;;;;;14.00;52.64;99194.47;5066514;28;20132;-70
2022/06/08 01:32:02;;;;;;;12.18;6.45;;;;;;;14.03;51.77;99203.06;5079775;28;20047;-69
2022/06/08 01:34:54;;;;;;;10.40;6.13;;;;;;;14.01;51.92;99194.31;5079655;28;20038;-68
2022/06/08 01:37:39;;;;;;;18.30;6.90;;;;;;;14.07;52.11;99209.84;5084351;28;20179;-72
2022/06/08 01:40:13;;;;;;;14.00;5.55;;;;;;;14.09;51.48;99212.41;5089063;28;20051;-67
2022/06/08 01:42:41;;;;;;;10.37;5.37;;;;;;;14.09;49.90;99213.25;5090868;28;20046;-67
2022/06/08 01:45:37;;;;;;;18.10;7.07;;;;;;;14.14;50.60;99216.31;5076796;28;20158;-66
2022/06/08 01:48:26;;;;;;;13.40;6.25;;;;;;;14.14;50.80;99218.16;5080143;27;20154;-65
2022/06/08 01:51:03;;;;;;;13.35;6.38;;;;;;;14.14;50.94;99213.66;5101729;27;20050;-66
2022/06/08 01:53:51;;;;;;;14.57;5.82;;;;;;;14.13;51.36;99217.31;5086267;27;20043;-68
2022/06/08 01:56:19;;;;;;;15.23;5.82;;;;;;;14.15;50.80;99223.38;5094287;27;20065;-67
2022/06/08 01:58:44;;;;;;;10.35;6.65;;;;;;;14.12;51.19;99215.63;5080930;28;20707;-67
2022/06/08 02:01:38;;;;;;;13.38;5.60;;;;;;;14.20;51.27;99212.25;5064085;27;20130;-66
2022/06/08 02:04:16;;;;;;;11.20;5.93;;;;;;;14.16;51.49;99217.03;5075180;27;20043;-65
2022/06/08 02:06:53;;;;;;;12.10;5.63;;;;;;;14.23;51.92;99219.13;5078621;27;20404;-67
2022/06/08 02:09:44;;;;;;;12.55;5.45;;;;;;;14.28;51.14;99206.16;5074303;28;20496;-68
2022/06/08 02:12:11;;;;;;;11.30;6.13;;;;;;;14.22;51.38;99212.91;5089883;27;20047;-68
2022/06/08 02:14:57;;;;;;;15.95;5.47;;;;;;;14.27;51.53;99215.19;5074679;27;20050;-67
2022/06/08 02:17:34;;;;;;;10.68;5.32;;;;;;;14.28;51.82;99224.91;5100356;27;20444;-66
2022/06/08 02:20:10;;;;;;;15.65;5.65;;;;;;;14.27;52.34;99221.41;5086631;27;20111;-67
2022/06/08 02:22:43;;;;;;;15.35;6.60;;;;;;;14.28;52.58;99223.09;5092169;27;20503;-67
2022/06/08 02:25:20;;;;;;;15.57;6.18;;;;;;;14.37;52.64;99226.75;5095178;27;20058;-66
2022/06/08 02:28:01;;;;;;;;;;;;;;;14.54;52.07;99226.03;5067264;27;20408;-68
2022/06/08 02:30:32;;;;;;;11.70;5.70;;;;;;;14.59;54.14;99233.63;5096515;27;19914;-69
2022/06/08 02:36:06;;;;;;;17.83;5.90;;;;;;;14.78;53.67;99228.25;5101461;27;20035;-70
2022/06/08 02:38:35;;;;;;;14.88;6.78;;;;;;;14.85;53.37;99235.56;5118500;27;20047;-67
2022/06/08 02:41:06;;;;;;;15.10;5.35;;;;;;;14.92;52.61;99240.31;5100404;27;20495;-66
2022/06/08 02:43:35;;;;;;;14.32;6.22;;;;;;;15.00;53.74;99248.50;5083693;27;20488;-67
2022/06/08 02:46:15;;;;;;;27.48;6.75;;;;;;;15.07;53.34;99230.81;5118959;27;20034;-66
2022/06/08 02:48:40;;;;;;;21.92;7.40;;;;;;;15.02;53.15;99230.38;5100960;27;20046;-67
2022/06/08 02:51:05;;;;;;;20.33;7.07;;;;;;;14.95;53.78;99240.88;5101320;27;20065;-68
2022/06/08 02:53:34;;;;;;;18.60;6.85;;;;;;;14.93;54.02;99240.19;5101677;27;20046;-67
2022/06/08 02:56:34;;;;;;;20.67;6.30;;;;;;;15.03;54.01;99238.28;5101852;27;20035;-71
2022/06/08 02:59:14;;;;;;;16.70;6.13;;;;;;;15.13;52.84;99236.41;5092338;27;20123;-65
2022/06/08 03:01:44;;;;;;;14.45;5.45;;;;;;;15.24;52.99;99240.75;5100885;27;20042;-68
2022/06/08 03:04:20;;;;;;;19.08;5.85;;;;;;;15.42;52.40;99244.34;5081884;27;20043;-70
2022/06/08 03:07:10;;;;;;;11.95;5.22;;;;;;;15.71;52.37;99248.72;5097195;27;20030;-69
2022/06/08 03:09:36;;;;;;;8.40;3.70;;;;;;;15.83;49.09;99242.97;5114599;27;20209;-68
2022/06/08 03:12:08;;;;;;;9.68;4.50;;;;;;;16.02;48.28;99251.91;5065922;27;20071;-69
2022/06/08 03:14:33;;;;;;;8.50;3.55;;;;;;;16.17;47.84;99250.34;5098912;27;20043;-68
2022/06/08 03:17:08;;;;;;;10.60;3.95;;;;;;;16.41;47.14;99257.78;5076864;27;20054;-68
2022/06/08 03:19:35;;;;;;;11.20;4.32;;;;;;;16.55;46.82;99243.75;5101138;27;20038;-68
2022/06/08 03:22:03;;;;;;;6.18;3.80;;;;;;;16.74;45.94;99250.81;5113342;27;20034;-69
2022/06/08 03:24:29;;;;;;;6.65;4.13;;;;;;;16.91;45.80;99250.78;5101119;27;20043;-67
2022/06/08 03:26:59;;;;;;;7.90;3.65;;;;;;;17.11;45.79;99250.53;5081225;27;20050;-71
2022/06/08 03:29:26;;;;;;;6.43;4.03;;;;;;;17.31;45.67;99254.66;5100024;27;20042;-70
2022/06/08 03:31:53;;;;;;;8.20;4.10;;;;;;;17.47;44.66;99249.34;5100735;27;20412;-70
2022/06/08 03:34:19;;;;;;;7.13;4.00;;;;;;;17.58;44.59;99257.13;5119304;27;20031;-69
2022/06/08 03:36:46;;;;;;;8.35;3.60;;;;;;;17.72;44.13;99253.81;5098239;27;20042;-68
2022/06/08 03:39:13;;;;;;;9.55;3.58;;;;;;;17.88;44.30;99253.03;5099393;27;20034;-67
2022/06/08 03:41:38;;;;;;;6.53;3.72;;;;;;;18.06;44.26;99255.56;5083699;27;20830;-67
2022/06/08 03:44:04;;;;;;;9.57;4.30;;;;;;;18.23;43.18;99265.38;5119647;27;20516;-68
2022/06/08 03:46:34;;;;;;;10.88;4.63;;;;;;;18.36;43.06;99259.50;5100196;27;20255;-69
2022/06/08 03:48:58;;;;;;;9.27;4.40;;;;;;;18.39;42.59;99257.31;5120313;27;20050;-69
2022/06/08 03:51:23;;;;;;;20.70;4.80;;;;;;;18.49;42.43;99266.06;5102502;27;20047;-69
2022/06/08 03:53:59;;;;;;;11.90;4.10;;;;;;;18.68;42.28;99267.59;5121618;27;20046;-72
2022/06/08 03:56:27;;;;;;;17.55;6.10;;;;;;;18.77;42.06;99277.38;5117257;27;20088;-70
2022/06/08 03:58:52;;;;;;;8.73;4.07;;;;;;;18.90;42.23;99262.50;5081761;27;20407;-70
2022/06/08 04:01:19;;;;;;;8.07;4.18;;;;;;;19.00;41.98;99274.81;5100096;27;20056;-72
2022/06/08 04:03:52;;;;;;;18.35;5.43;;;;;;;19.08;40.94;99274.78;5100006;27;20043;-71
2022/06/08 04:06:21;;;;;;;12.18;4.10;;;;;;;19.12;40.63;99269.88;5099634;27;20066;-71
2022/06/08 04:08:47;;;;;;;6.88;4.47;;;;;;;19.14;40.66;99270.56;5099324;27;20563;-72
2022/06/08 04:11:13;;;;;;;11.70;4.65;;;;;;;19.22;41.13;99268.66;5098416;27;20047;-71
2022/06/08 04:13:41;;;;;;;9.30;4.25;;;;;;;19.37;41.09;99262.53;5118027;27;20099;-72
2022/06/08 04:16:11;;;;;;;9.07;4.45;;;;;;;19.56;40.89;99267.56;5101182;27;20043;-71
2022/06/08 04:18:41;;;;;;;12.27;4.30;;;;;;;19.77;39.76;99266.94;5106695;27;20050;-73
2022/06/08 04:21:09;;;;;;;10.57;4.35;;;;;;;19.94;39.75;99271.25;5121092;27;20031;-71
2022/06/08 04:23:44;;;;;;;13.68;4.35;;;;;;;20.10;39.63;99275.69;5066972;27;20042;-72
2022/06/08 04:26:10;;;;;;;8.98;4.15;;;;;;;20.24;39.64;99272.22;5098595;27;20095;-72
2022/06/08 04:28:36;;;;;;;8.80;4.53;;;;;;;20.40;39.39;99271.31;5099520;27;20158;-69
2022/06/08 04:31:08;;;;;;;8.13;3.85;;;;;;;20.61;39.43;99279.59;5081068;27;20154;-68
2022/06/08 04:33:36;;;;;;;7.13;4.22;;;;;;;20.82;39.82;99271.59;5082004;27;20069;-72
2022/06/08 04:36:03;;;;;;;12.63;4.38;;;;;;;21.07;39.04;99265.94;5081705;27;20449;-73
2022/06/08 04:38:28;;;;;;;9.70;4.63;;;;;;;21.32;38.85;99270.09;5116783;27;20042;-71
2022/06/08 04:40:53;;;;;;;7.53;4.18;;;;;;;21.54;38.18;99263.72;5099415;27;20073;-71
2022/06/08 04:43:19;;;;;;;7.72;4.10;;;;;;;21.80;36.90;99259.63;5081142;27;20046;-70
2022/06/08 04:45:44;;;;;;;8.45;4.50;;;;;;;22.04;36.05;99260.16;5098290;27;20053;-70
2022/06/08 04:48:10;;;;;;;9.65;4.85;;;;;;;22.39;35.54;99265.72;5099037;27;20046;-71
2022/06/08 04:50:36;;;;;;;7.35;3.90;;;;;;;22.73;34.80;99265.00;5097921;27;20046;-70
2022/06/08 04:53:01;;;;;;;7.68;4.47;;;;;;;22.91;33.25;99261.84;5099311;27;20049;-70
2022/06/08 04:55:27;;;;;;;12.50;4.43;;;;;;;23.07;32.86;99264.22;5082233;27;20035;-70
2022/06/08 04:57:52;;;;;;;7.38;3.95;;;;;;;23.26;32.34;99271.66;5080778;27;20087;-71
2022/06/08 05:00:21;;;;;;;13.23;4.97;;;;;;;23.51;32.75;99259.28;5098421;27;20050;-72
2022/06/08 05:02:48;;;;;;;5.78;3.58;;;;;;;23.86;31.97;99262.78;5080843;27;20082;-72
2022/06/08 05:05:20;;;;;;;7.70;4.07;;;;;;;24.14;31.79;99262.69;5082644;27;20409;-70
2022/06/08 05:07:47;;;;;;;7.80;4.28;;;;;;;24.44;31.13;99257.72;5080917;27;20172;-68
2022/06/08 05:10:13;;;;;;;12.05;4.05;;;;;;;24.73;30.84;99258.34;5116674;27;20163;-69
2022/06/08 05:12:40;;;;;;;16.88;5.28;;;;;;;25.05;30.51;99263.00;5081333;27;20030;-69
2022/06/08 05:15:09;;;;;;;9.38;4.20;;;;;;;25.37;30.21;99263.97;5117943;27;20054;-68
2022/06/08 05:17:35;;;;;;;8.60;4.38;;;;;;;25.65;29.95;99255.50;5137503;27;20182;-68
2022/06/08 05:20:01;;;;;;;11.70;4.38;;;;;;;25.88;29.47;99257.72;5101502;27;20038;-70
2022/06/08 05:22:28;;;;;;;10.95;4.75;;;;;;;26.07;28.59;99256.78;5103541;27;20523;-69
2022/06/08 05:24:54;;;;;;;7.70;4.40;;;;;;;26.27;28.58;99257.53;5110028;27;20034;-69
2022/06/08 05:27:19;;;;;;;8.27;4.40;;;;;;;26.48;28.18;99264.53;5124979;27;20392;-71
2022/06/08 05:29:45;;;;;;;6.80;3.95;;;;;;;26.68;28.22;99265.22;5124508;27;20391;-73
2022/06/08 05:32:10;;;;;;;11.20;4.72;;;;;;;26.90;27.90;99267.56;5124244;27;20050;-70
2022/06/08 05:34:36;;;;;;;10.90;4.57;;;;;;;27.02;27.07;99265.78;5088376;27;20033;-69
2022/06/08 05:37:00;;;;;;;14.30;5.05;;;;;;;27.03;27.24;99268.31;5122941;27;20041;-69
2022/06/08 05:39:26;;;;;;;9.85;4.68;;;;;;;27.16;27.07;99261.88;5127003;27;20045;-72
2022/06/08 05:41:51;;;;;;;11.43;4.85;;;;;;;27.34;26.92;99272.00;5107868;27;20066;-73
2022/06/08 05:44:19;;;;;;;16.52;4.95;;;;;;;27.32;26.07;99274.94;5113075;27;20036;-70
2022/06/08 05:46:46;;;;;;;7.75;4.30;;;;;;;27.31;25.62;99275.22;5125138;27;20038;-70
2022/06/08 05:49:13;;;;;;;9.55;4.38;;;;;;;27.45;25.48;99269.34;5141398;27;20120;-71
2022/06/08 05:51:42;;;;;;;16.55;5.50;;;;;;;27.67;25.42;99269.75;5104871;27;20094;-71
2022/06/08 05:54:08;;;;;;;7.32;4.55;;;;;;;28.10;25.35;99275.09;5122279;27;20477;-68
2022/06/08 05:56:33;;;;;;;13.55;4.63;;;;;;;28.63;24.62;99273.53;5104782;27;20129;-69
2022/06/08 05:59:00;;;;;;;8.00;4.78;;;;;;;29.28;23.87;99274.31;5142242;27;20046;-67
2022/06/08 06:01:25;;;;;;;6.18;4.13;;;;;;;29.81;22.46;99282.38;5123414;27;20046;-68
2022/06/08 06:03:54;;;;;;;9.48;4.50;;;;;;;30.33;21.97;99285.94;5104967;27;20061;-66
2022/06/08 06:06:19;;;;;;;6.68;3.83;;;;;;;30.86;21.32;99273.69;5140666;27;20659;-66
2022/06/08 06:08:48;;;;;;;12.23;4.07;;;;;;;31.43;20.84;99286.44;5121747;27;20042;-68
2022/06/08 06:11:17;;;;;;;4.50;3.25;;;;;;;31.55;19.41;99276.13;5121487;27;20041;-67
2022/06/08 06:13:45;;;;;;;4.00;3.60;;;;;;;31.97;18.79;99276.41;5121363;27;20080;-67
2022/06/08 06:16:15;;;;;;;4.53;2.90;;;;;;;32.37;17.89;99279.69;5121672;27;20045;-67
2022/06/08 06:18:41;;;;;;;6.00;3.25;;;;;;;32.56;16.96;99282.06;5104101;27;20042;-69
2022/06/08 06:21:20;;;;;;;5.28;3.30;;;;;;;33.22;17.27;99288.16;5121343;27;20411;-69
2022/06/08 06:24:06;;;;;;;8.85;3.88;;;;;;;33.46;16.73;99297.75;5076269;28;20047;-69
2022/06/08 06:26:53;;;;;;;13.73;8.02;;;;;;;33.81;16.78;99284.16;5058752;28;20048;-68
2022/06/08 06:29:44;;;;;;;15.40;4.22;;;;;;;34.16;16.64;99285.38;5042209;28;20589;-67
2022/06/08 06:32:32;;;;;;;4.80;3.78;;;;;;;34.18;15.98;99300.63;5055135;28;20063;-67
2022/06/08 06:34:58;;;;;;;3.90;3.50;;;;;;;34.61;15.67;99301.28;5039690;28;20086;-68
2022/06/08 06:37:24;;;;;;;7.15;3.63;;;;;;;35.38;15.86;99294.69;5039713;28;20193;-66
2022/06/08 06:39:51;;;;;;;5.53;3.90;;;;;;;35.94;15.13;99300.09;5039477;28;20044;-69
2022/06/08 06:42:26;;;;;;;5.25;4.00;;;;;;;36.35;14.82;99303.50;5055172;28;20124;-69
2022/06/08 06:45:27;;;;;;;10.93;4.18;;;;;;;36.09;13.75;99294.47;4995667;28;20590;-67
2022/06/08 06:48:18;;;;;;;6.32;3.67;;;;;;;36.19;14.15;99302.75;4937290;28;20113;-66
2022/06/08 06:50:43;;;;;;;8.63;4.00;;;;;;;36.36;14.11;99299.63;4923525;28;20059;-69
2022/06/08 06:53:09;;;;;;;13.75;7.30;;;;;;;36.57;14.05;99300.34;4926372;28;20142;-67
2022/06/08 06:55:39;;;;;;;13.63;5.40;;;;;;;36.96;13.79;99301.19;4927435;28;20057;-68
2022/06/08 06:58:22;;;;;;;5.82;3.92;;;;;;;37.29;13.37;99304.25;4941094;28;20058;-71
2022/06/08 07:00:47;;;;;;;7.75;3.95;;;;;;;37.49;12.90;99301.25;4926018;28;20063;-67
2022/06/08 07:03:16;;;;;;;5.57;4.50;;;;;;;38.02;12.45;99295.69;4882490;29;20460;-70
2022/06/08 07:05:43;;;;;;;7.78;4.10;;;;;;;38.01;12.41;99305.16;4907699;28;20038;-69
2022/06/08 07:08:08;;;;;;;8.90;4.38;;;;;;;38.22;12.53;99309.34;4940340;28;20050;-68
2022/06/08 07:10:34;;;;;;;10.63;4.65;;;;;;;38.22;12.32;99308.53;4945321;28;20038;-70
2022/06/08 07:12:59;;;;;;;6.93;4.95;;;;;;;38.11;12.49;99307.84;4944514;28;20105;-69
2022/06/08 07:15:26;;;;;;;7.35;4.07;;;;;;;38.47;12.29;99308.16;4956408;28;20088;-70
2022/06/08 07:17:52;;;;;;;9.90;4.68;;;;;;;38.86;12.19;99313.44;4956337;28;20519;-72
2022/06/08 07:20:19;;;;;;;15.05;7.00;;;;;;;38.91;11.86;99310.56;5007283;28;20572;-71
2022/06/08 07:22:46;;;;;;;28.50;14.80;;;;;;;39.35;12.02;99317.66;5018414;28;20570;-69
2022/06/08 07:25:13;;;;;;;10.52;6.22;;;;;;;39.90;11.39;99322.22;5089903;27;20061;-70
2022/06/08 07:27:38;;;;;;;7.13;4.43;;;;;;;39.78;11.55;99310.72;5138563;27;20073;-69
2022/06/08 07:30:05;;;;;;;12.02;6.40;;;;;;;39.92;11.08;99311.56;5138635;27;20042;-72
2022/06/08 07:32:30;;;;;;;15.55;7.80;;;;;;;40.04;10.91;99301.84;5138521;27;20519;-71
2022/06/08 07:34:54;;;;;;;22.13;12.00;;;;;;;39.88;10.99;99310.53;5120454;27;20516;-72
2022/06/08 07:37:19;;;;;;;21.67;15.50;;;;;;;40.24;11.04;99305.03;5122043;27;20195;-70
2022/06/08 07:39:44;;;;;;;9.48;7.13;;;;;;;40.95;10.66;99297.81;5120589;27;20420;-71
2022/06/08 07:42:09;;;;;;;36.58;18.42;;;;;;;41.91;10.40;99315.97;5138685;27;20042;-70
2022/06/08 07:44:34;;;;;;;7.00;6.20;;;;;;;42.74;9.46;99323.28;5138329;27;20042;-72
2022/06/08 07:46:59;;;;;;;38.10;17.95;;;;;;;43.36;9.40;99306.06;5137141;27;20618;-71
2022/06/08 07:49:37;;;;;;;7.40;6.55;;;;;;;44.21;9.16;99322.13;5138215;27;20045;-72
2022/06/08 07:52:05;;;;;;;6.90;6.05;;;;;;;44.88;8.38;99323.97;5138420;27;20057;-71
2022/06/08 07:54:30;;;;;;;45.42;20.92;;;;;;;45.58;8.79;99322.97;5138603;27;20117;-71
2022/06/08 07:56:55;;;;;;;8.38;7.50;;;;;;;46.24;8.38;99323.59;5119995;27;20053;-71
2022/06/08 07:59:22;;;;;;;25.48;11.45;;;;;;;46.84;7.89;99330.34;5138058;27;20134;-71
2022/06/08 08:01:47;;;;;;;10.27;8.48;;;;;;;47.09;7.44;99319.78;5138241;27;20038;-71
2022/06/08 08:04:11;;;;;;;9.73;8.07;;;;;;;47.28;7.37;99324.75;5119742;27;20049;-70
2022/06/08 08:06:36;;;;;;;8.45;7.68;;;;;;;47.27;6.84;99320.28;5138472;27;20038;-70
2022/06/08 08:09:01;;;;;;;20.88;14.23;;;;;;;47.51;7.31;99325.00;5138512;27;20070;-71
2022/06/08 08:11:27;;;;;;;10.75;9.68;;;;;;;47.80;7.20;99318.91;5137933;27;20038;-73
2022/06/08 08:13:52;;;;;;;11.45;10.45;;;;;;;47.84;7.38;99327.50;5101665;27;20046;-70
2022/06/08 08:16:16;;;;;;;9.95;9.25;;;;;;;48.30;7.26;99326.66;5119393;27;20049;-70
2022/06/08 08:18:41;;;;;;;10.52;9.73;;;;;;;48.98;6.71;99331.00;5137844;27;20069;-72
2022/06/08 08:21:06;;;;;;;13.00;11.73;;;;;;;49.45;6.45;99316.56;5118866;27;20053;-70
2022/06/08 08:23:31;;;;;;;13.50;12.48;;;;;;;49.93;6.44;99315.03;5137942;27;20038;-72
2022/06/08 08:25:56;;;;;;;13.13;12.25;;;;;;;50.35;5.66;99314.06;5119249;27;20527;-72
2022/06/08 08:28:21;;;;;;;19.55;17.90;;;;;;;50.66;5.77;99315.75;5138143;27;20044;-70
2022/06/08 08:30:45;;;;;;;15.23;14.10;;;;;;;50.85;5.44;99321.25;5137837;27;20042;-73
2022/06/08 08:33:10;;;;;;;16.42;15.52;;;;;;;51.11;5.38;99324.03;5132749;27;20046;-71
2022/06/08 08:35:35;;;;;;;19.02;17.80;;;;;;;51.34;5.11;99317.41;5114808;27;20049;-72
2022/06/08 08:38:00;;;;;;;20.70;19.02;;;;;;;51.60;4.67;99317.28;5146888;27;20523;-71
2022/06/08 08:40:27;;;;;;;19.05;17.90;;;;;;;51.93;4.93;99329.78;5146344;27;20034;-72
2022/06/08 08:42:52;;;;;;;19.80;18.48;;;;;;;52.02;4.72;99325.41;5145460;27;20106;-72
2022/06/08 08:45:17;;;;;;;19.15;18.00;;;;;;;52.07;4.92;99324.19;5139862;27;20443;-72
2022/06/08 08:48:09;;;;;;;20.40;19.10;;;;;;;52.63;5.13;99326.63;5137817;27;20440;-72
2022/06/08 08:51:01;;;;;;;22.95;21.58;;;;;;;53.04;4.82;99318.69;5138354;27;20149;-73
2022/06/08 08:53:34;;;;;;;22.10;20.60;;;;;;;52.77;4.55;99357.19;5120496;27;20046;-71
2022/06/08 08:56:16;;;;;;;21.15;19.70;;;;;;;53.27;4.56;99310.66;5119148;27;20045;-70
2022/06/08 08:58:47;;;;;;;24.33;22.58;;;;;;;53.22;4.63;99313.88;5103265;27;20045;-72
2022/06/08 09:01:27;;;;;;;20.67;19.23;;;;;;;53.50;4.61;99315.16;5151128;27;20053;-71
2022/06/08 09:04:20;;;;;;;24.98;23.50;;;;;;;54.11;4.90;99316.00;5151518;27;20042;-70
2022/06/08 09:06:46;;;;;;;28.05;26.48;;;;;;;52.80;4.25;99293.75;5123711;27;20038;-73
2022/06/08 09:09:16;;;;;;;24.65;22.88;;;;;;;52.51;5.12;99299.28;5122773;27;20471;-71
2022/06/08 09:11:43;;;;;;;24.80;23.17;;;;;;;52.68;4.90;99291.28;5130883;27;20042;-72
2022/06/08 09:14:26;;;;;;;26.52;24.92;;;;;;;53.72;4.64;99305.44;5148016;27;20053;-70
2022/06/08 09:17:09;;;;;;;28.90;27.50;;;;;;;53.63;4.35;99336.34;5119373;27;20038;-70
2022/06/08 09:19:41;;;;;;;29.75;28.05;;;;;;;54.14;3.92;99340.88;5137094;27;20049;-70
2022/06/08 09:22:09;;;;;;;28.83;27.02;;;;;;;54.24;3.23;99337.22;5137454;27;20049;-71
2022/06/08 09:25:03;;;;;;;35.75;33.95;;;;;;;55.17;3.52;99326.34;5136622;27;20114;-70
2022/06/08 09:27:33;;;;;;;37.20;35.35;;;;;;;54.78;3.42;99363.59;5136652;27;20091;-70
2022/06/08 09:29:58;;;;;;;41.72;39.58;;;;;;;54.78;3.41;99332.16;5136669;27;20548;-73
2022/06/08 09:32:29;;;;;;;40.88;38.72;;;;;;;54.33;3.32;99334.72;5136407;27;20573;-70
2022/06/08 09:34:57;;;;;;;40.20;38.17;;;;;;;53.91;4.00;99333.56;5137275;27;20042;-70
2022/06/08 09:37:26;;;;;;;42.85;40.75;;;;;;;54.37;3.82;99323.31;5118251;27;20030;-75
2022/06/08 09:39:53;;;;;;;40.78;38.40;;;;;;;54.95;3.72;99349.28;5118015;27;20038;-71
2022/06/08 09:42:56;;;;;;;41.55;38.90;;;;;;;56.17;2.92;99323.56;5137063;27;20093;-71
2022/06/08 09:45:28;;;;;;;44.83;42.72;;;;;;;56.37;2.87;99341.75;5136893;27;20073;-73
2022/06/08 09:54:12;;;;;;;60.28;57.05;;;;;;;57.11;2.58;99323.69;5136866;27;20527;-71
2022/06/08 09:57:11;;;;;;;55.35;52.80;;;;;;;57.39;3.17;99333.94;5111920;27;20047;-72
2022/06/08 10:00:17;;;;;;;58.17;55.20;;;;;;;57.52;2.88;99325.56;5076947;28;20039;-71
2022/06/08 10:03:00;;;;;;;60.70;57.90;;;;;;;57.40;2.70;99351.97;4978966;28;20049;-72
2022/06/08 10:05:41;;;;;;;69.03;65.70;;;;;;;57.41;2.54;99322.88;5012395;28;20043;-71
2022/06/08 10:08:22;;;;;;;;;;;;;;;58.93;2.10;99323.41;5012888;28;20048;-70
2022/06/08 10:14:04;;;;;;;71.18;67.97;;;;;;;58.16;2.21;99330.25;5015597;28;20229;-71
2022/06/08 10:16:33;;;;;;;75.10;71.60;;;;;;;57.90;2.64;99314.72;5015837;28;20103;-71
2022/06/08 10:19:07;;;;;;;81.25;77.75;;;;;;;57.36;2.47;99309.00;5015423;28;20056;-70
2022/06/08 10:21:41;;;;;;;65.30;62.30;;;;;;;57.20;2.34;99314.56;5015821;28;20045;-71
2022/06/08 10:24:33;;;;;;;71.53;68.13;;;;;;;56.79;2.43;99295.44;5032174;28;20044;-71
2022/06/08 10:27:16;;;;;;;68.00;65.03;;;;;;;57.33;2.52;99304.16;5029430;28;20053;-70
2022/06/08 10:29:51;;;;;;;70.18;66.85;;;;;;;56.65;2.95;99291.94;5015860;28;20074;-73
2022/06/08 10:32:17;;;;;;;48.90;46.47;;;;;;;53.47;3.75;99231.25;4999902;28;20126;-72
2022/06/08 10:34:43;;;;;;;28.27;26.65;;;;;;;49.60;4.97;99222.13;4982548;28;20041;-72
2022/06/08 10:37:18;;;;;;;20.60;19.23;;;;;;;46.66;6.84;99218.97;4998671;28;20060;-72
2022/06/08 10:39:45;;;;;;;12.90;11.60;;;;;;;43.14;8.12;99202.44;5082017;27;20054;-73
2022/06/08 10:42:40;;;;;;;8.95;8.15;;;;;;;41.30;9.88;99206.56;5079615;27;20137;-72
2022/06/08 10:45:20;;;;;;;10.25;6.85;;;;;;;39.12;10.54;99194.81;5098157;27;20103;-74
2022/06/08 10:48:01;;;;;;;5.95;5.15;;;;;;;37.02;11.50;99188.81;5098457;27;20047;-76
2022/06/08 10:50:34;;;;;;;5.65;4.53;;;;;;;34.67;13.41;99183.03;5080327;27;20039;-73
2022/06/08 10:56:23;;;;;;;3.90;3.60;;;;;;;33.09;14.24;99192.75;5102930;27;20051;-71
2022/06/08 10:59:08;;;;;;;5.50;4.25;;;;;;;32.13;15.39;99175.38;5065939;27;20038;-74
2022/06/08 11:01:52;;;;;;;4.72;4.30;;;;;;;31.54;15.58;99178.00;5084230;27;20527;-76
2022/06/08 11:04:27;;;;;;;6.45;4.18;;;;;;;30.79;16.50;99181.38;5100815;27;20043;-74
2022/06/08 11:06:58;;;;;;;4.35;3.55;;;;;;;30.10;16.98;99172.47;5082923;27;20114;-72
2022/06/08 11:09:34;;;;;;;3.53;3.22;;;;;;;29.79;16.96;99184.78;5099214;27;20047;-69
2022/06/08 11:12:11;;;;;;;4.25;3.22;;;;;;;29.25;17.62;99182.28;5087498;27;20047;-71
2022/06/08 11:14:47;;;;;;;;;;;;;;;29.29;16.55;99176.31;5085892;27;20137;-70
2022/06/08 11:17:23;;;;;;;5.22;3.53;;;;;;;28.63;17.56;99180.25;5106670;27;20018;-70
2022/06/08 11:19:49;;;;;;;4.15;2.95;;;;;;;28.09;19.34;99173.94;5106613;27;20046;-69
2022/06/08 11:22:27;;;;;;;5.57;4.63;;;;;;;27.91;18.57;99161.13;5108366;27;20058;-70
2022/06/08 11:24:59;;;;;;;7.90;3.60;;;;;;;27.56;20.46;99165.63;5083759;27;20390;-71
2022/06/08 11:27:31;;;;;;;6.82;3.60;;;;;;;27.33;20.79;99169.03;5079162;27;20039;-73
2022/06/08 11:30:02;;;;;;;4.93;3.38;;;;;;;27.09;21.24;99168.88;5079225;27;20039;-70
2022/06/08 11:32:34;;;;;;;6.80;3.08;;;;;;;26.89;20.98;99160.03;5097720;27;20435;-68
2022/06/08 11:35:12;;;;;;;6.35;3.10;;;;;;;26.72;20.26;99159.81;5080182;27;20403;-70
2022/06/08 11:37:51;;;;;;;7.13;3.38;;;;;;;26.70;21.05;99161.06;5097151;27;20100;-68
2022/06/08 11:40:33;;;;;;;4.35;3.08;;;;;;;26.60;20.99;99166.22;5097552;27;20050;-68
2022/06/08 11:43:10;;;;;;;7.07;3.47;;;;;;;26.45;20.83;99168.47;5078934;27;20155;-67
2022/06/08 11:45:35;;;;;;;12.90;3.70;;;;;;;26.19;20.95;99172.19;5078641;27;20043;-68
2022/06/08 11:48:13;;;;;;;3.95;3.10;;;;;;;26.12;21.92;99172.25;5097040;27;20101;-67
2022/06/08 11:50:43;;;;;;;4.93;3.03;;;;;;;25.94;22.41;99169.44;5078814;27;20045;-67
2022/06/08 11:53:18;;;;;;;7.78;3.28;;;;;;;25.86;21.77;99167.78;5078562;27;20134;-69
2022/06/08 11:56:05;;;;;;;6.15;3.72;;;;;;;25.80;21.85;99165.97;5078705;27;20051;-69
2022/06/08 11:58:31;;;;;;;9.50;2.67;;;;;;;25.61;23.03;99162.28;5096745;27;20071;-71
2022/06/08 12:01:14;;;;;;;4.15;3.33;;;;;;;25.62;22.62;99165.88;5078490;27;20042;-67
2022/06/08 12:03:44;;;;;;;4.13;2.55;;;;;;;25.49;23.04;99161.28;5097205;27;20049;-67
2022/06/08 12:06:24;;;;;;;10.20;3.15;;;;;;;25.46;23.17;99167.16;5078268;27;20408;-67